Axtell, Texas
Current Conditions -  °F | °C
As of 2:55 PM on Saturday 22 Nov 2014 (Local Time) from KCNW Reporting Station
Thunderstorm Thunderstorm  
Wind Chill: 66°   Ceiling: 1700
Heat Index: 66°   Visibility: 10mi
Dew Point: 61°   Wind: 5mph
Humidity: 83%   Direction: 170°S
Pressure: 29.9"   Gusts: NA
Location:  31.66°N, 96.97°W
Report Text: KCNW 222055Z 17004KT 10SM TSRA OVC017 19/16 A2990
Loading
Personal Weather Stations






























Interactive Weather Map New forecast layout! Learn more

10-Day Weather Forecast

Advertisements
Track Severe Weather on mobile